createdAt,value
2022-12-12T00:00:41.252Z,3.01
2022-12-12T00:03:08.886Z,2.92
2022-12-12T00:05:36.469Z,3.05
2022-12-12T00:08:03.938Z,3.08
2022-12-12T00:10:31.421Z,3.03
2022-12-12T00:12:59.694Z,3.05
2022-12-12T00:15:27.950Z,3.05
2022-12-12T00:17:56.403Z,3.00
2022-12-12T00:20:23.842Z,3.13
2022-12-12T00:22:51.690Z,3.07
2022-12-12T00:25:19.009Z,3.10
2022-12-12T00:27:46.836Z,3.02
2022-12-12T00:30:14.247Z,2.93
2022-12-12T00:32:41.600Z,3.02
2022-12-12T00:35:08.838Z,3.02
2022-12-12T00:37:36.052Z,2.98
2022-12-12T00:40:04.344Z,2.89
2022-12-12T00:42:31.854Z,2.88
2022-12-12T00:44:59.138Z,2.84
2022-12-12T00:47:26.497Z,2.73
2022-12-12T00:49:53.771Z,2.74
2022-12-12T00:52:21.119Z,2.75
2022-12-12T00:54:48.351Z,2.86
2022-12-12T00:57:15.961Z,2.80
2022-12-12T00:59:43.423Z,2.84
2022-12-12T01:02:10.792Z,2.90
2022-12-12T01:04:38.023Z,2.78
2022-12-12T01:07:05.192Z,2.70
2022-12-12T01:09:32.518Z,2.62
2022-12-12T01:11:59.975Z,2.52
2022-12-12T01:14:27.586Z,2.53
2022-12-12T01:16:56.067Z,2.55
2022-12-12T01:19:23.392Z,2.62
2022-12-12T01:21:50.627Z,2.65
2022-12-12T01:24:18.359Z,2.62
2022-12-12T01:26:46.097Z,2.73
2022-12-12T01:29:13.656Z,2.69
2022-12-12T01:31:41.316Z,2.72
2022-12-12T01:34:08.835Z,2.78
2022-12-12T01:36:36.961Z,2.79
2022-12-12T01:39:05.896Z,2.78
2022-12-12T01:41:33.351Z,2.82
2022-12-12T01:44:04.758Z,2.83
2022-12-12T01:46:43.128Z,2.86
2022-12-12T01:49:16.785Z,2.87
2022-12-12T01:51:45.527Z,2.86
2022-12-12T01:54:22.823Z,2.87
2022-12-12T01:56:51.591Z,2.91
2022-12-12T01:59:22.736Z,2.91
2022-12-12T02:01:51.260Z,2.88
2022-12-12T02:04:19.397Z,2.95
2022-12-12T02:06:49.473Z,2.95
2022-12-12T02:09:18.138Z,2.90
2022-12-12T02:11:48.709Z,2.93
2022-12-12T02:14:20.903Z,2.94
2022-12-12T02:17:10.151Z,2.98
2022-12-12T02:20:06.200Z,3.10
2022-12-12T02:23:00.087Z,3.29
2022-12-12T02:25:51.848Z,3.27
2022-12-12T02:28:34.438Z,3.34
2022-12-12T02:31:23.718Z,3.25
2022-12-12T02:34:01.066Z,3.14
2022-12-12T02:36:49.942Z,3.13
2022-12-12T02:39:31.564Z,3.12
2022-12-12T02:42:02.089Z,3.11
2022-12-12T02:44:39.078Z,3.12
2022-12-12T02:47:41.357Z,3.13
2022-12-12T02:50:20.455Z,3.11
2022-12-12T02:52:48.747Z,3.14
2022-12-12T02:55:17.282Z,3.13
2022-12-12T02:57:45.012Z,3.12
2022-12-12T03:00:15.823Z,3.10
2022-12-12T03:03:20.064Z,3.10
2022-12-12T03:06:41.304Z,2.96
2022-12-12T03:09:20.824Z,2.86
2022-12-12T03:12:11.970Z,2.89
2022-12-12T03:14:45.566Z,2.85
2022-12-12T03:17:25.086Z,2.93
2022-12-12T03:20:18.116Z,2.90
2022-12-12T03:23:23.806Z,3.07
2022-12-12T03:26:00.787Z,2.93
2022-12-12T03:28:40.510Z,2.82
2022-12-12T03:31:12.077Z,2.78
2022-12-12T03:33:53.304Z,2.75
2022-12-12T03:36:26.915Z,2.79
2022-12-12T03:38:59.824Z,2.77
2022-12-12T03:41:42.129Z,2.89
2022-12-12T03:44:22.492Z,2.81
2022-12-12T03:46:57.493Z,2.74
2022-12-12T03:49:31.927Z,2.73
2022-12-12T03:52:07.047Z,2.74
2022-12-12T03:54:40.882Z,2.78
2022-12-12T03:57:24.250Z,2.78
2022-12-12T04:00:06.769Z,2.88
2022-12-12T04:02:51.971Z,2.89
2022-12-12T04:05:28.638Z,3.04
2022-12-12T04:08:13.202Z,3.00
2022-12-12T04:11:12.342Z,2.93
2022-12-12T04:13:48.994Z,2.87
2022-12-12T04:16:23.607Z,2.80
2022-12-12T04:19:01.898Z,2.88
2022-12-12T04:22:00.202Z,2.84
2022-12-12T04:24:29.262Z,2.93
2022-12-12T04:27:31.068Z,2.90
2022-12-12T04:30:07.339Z,2.99
2022-12-12T04:32:34.934Z,3.04
2022-12-12T04:35:13.100Z,2.92
2022-12-12T04:37:48.185Z,2.98
2022-12-12T04:40:23.290Z,2.89
2022-12-12T04:43:02.907Z,2.84
2022-12-12T04:45:38.518Z,2.86
2022-12-12T04:48:09.526Z,2.79
2022-12-12T04:50:38.665Z,2.69
2022-12-12T04:53:18.159Z,2.93
2022-12-12T04:55:56.116Z,2.85
2022-12-12T04:58:24.234Z,2.76
2022-12-12T05:01:28.758Z,2.67
2022-12-12T05:04:06.414Z,2.62
2022-12-12T05:06:42.481Z,2.58
2022-12-12T05:09:11.876Z,2.55
2022-12-12T05:11:39.621Z,2.53
2022-12-12T05:14:09.599Z,2.61
2022-12-12T05:16:52.047Z,2.52
2022-12-12T05:19:19.545Z,2.51
2022-12-12T05:21:46.987Z,2.56
2022-12-12T05:24:14.366Z,2.49
2022-12-12T05:26:41.926Z,2.50
2022-12-12T05:29:09.488Z,2.62
2022-12-12T05:31:36.833Z,2.91
2022-12-12T05:34:04.837Z,2.75
2022-12-12T05:36:32.542Z,2.67
2022-12-12T05:39:00.024Z,2.44
2022-12-12T05:41:27.644Z,2.33
2022-12-12T05:43:55.292Z,2.30
2022-12-12T05:46:22.644Z,2.31
2022-12-12T05:48:50.906Z,2.44
2022-12-12T05:51:19.340Z,2.59
2022-12-12T05:53:47.530Z,2.61
2022-12-12T05:56:15.007Z,2.62
2022-12-12T05:58:42.911Z,2.64
2022-12-12T06:01:10.846Z,2.55
2022-12-12T06:03:38.342Z,2.50
2022-12-12T06:06:05.748Z,2.47
2022-12-12T06:08:33.274Z,2.50
2022-12-12T06:11:00.773Z,2.53
2022-12-12T06:13:28.281Z,2.46
2022-12-12T06:15:55.683Z,2.50
2022-12-12T06:18:23.262Z,2.65
2022-12-12T06:20:50.542Z,2.65
2022-12-12T06:23:17.827Z,2.56
2022-12-12T06:25:45.103Z,2.50
2022-12-12T06:28:12.502Z,2.46
2022-12-12T06:30:39.932Z,2.74
2022-12-12T06:33:07.253Z,2.80
2022-12-12T06:35:34.828Z,2.56
2022-12-12T06:38:02.324Z,2.54
2022-12-12T06:40:30.138Z,2.52
2022-12-12T06:42:57.571Z,2.38
2022-12-12T06:45:24.931Z,2.43
2022-12-12T06:47:52.452Z,2.64
2022-12-12T06:50:23.668Z,2.65
2022-12-12T06:52:51.631Z,2.39
2022-12-12T06:55:19.056Z,2.29
2022-12-12T06:57:46.613Z,2.17
2022-12-12T07:00:14.188Z,2.09
2022-12-12T07:02:41.615Z,2.13
2022-12-12T07:05:09.022Z,2.20
2022-12-12T07:07:36.518Z,2.19
2022-12-12T07:10:04.407Z,2.42
2022-12-12T07:12:31.837Z,2.55
2022-12-12T07:14:59.154Z,2.36
2022-12-12T07:17:26.442Z,2.25
2022-12-12T07:19:53.585Z,2.22
2022-12-12T07:22:20.882Z,2.41
2022-12-12T07:24:52.629Z,2.30
2022-12-12T07:27:21.976Z,2.17
2022-12-12T07:29:49.545Z,2.07
2022-12-12T07:32:16.938Z,2.06
2022-12-12T07:34:44.147Z,2.07
2022-12-12T07:37:11.503Z,1.94
2022-12-12T07:39:38.688Z,1.73
2022-12-12T07:42:06.067Z,1.76
2022-12-12T07:44:33.376Z,1.92
2022-12-12T07:47:00.829Z,2.00
2022-12-12T07:49:29.645Z,1.92
2022-12-12T07:51:57.135Z,1.84
2022-12-12T07:54:24.759Z,1.72
2022-12-12T07:56:52.215Z,1.70
2022-12-12T07:59:19.687Z,1.69
2022-12-12T08:01:47.296Z,1.71
2022-12-12T08:04:14.606Z,1.64
2022-12-12T08:06:42.171Z,1.74
2022-12-12T08:09:09.587Z,1.64
2022-12-12T08:11:38.899Z,1.66
2022-12-12T08:14:13.131Z,1.69
2022-12-12T08:16:41.386Z,1.74
2022-12-12T08:19:08.885Z,1.51
2022-12-12T08:21:36.533Z,1.60
2022-12-12T08:24:04.205Z,1.64
2022-12-12T08:26:32.358Z,1.63
2022-12-12T08:29:00.092Z,1.76
2022-12-12T08:31:28.267Z,1.79
2022-12-12T08:33:56.211Z,1.68
2022-12-12T08:36:32.231Z,1.58
2022-12-12T08:39:05.167Z,1.48
2022-12-12T08:41:34.660Z,1.45
2022-12-12T08:44:02.133Z,1.44
2022-12-12T08:46:29.908Z,1.32
2022-12-12T08:48:57.359Z,1.32
2022-12-12T08:51:25.042Z,1.13
2022-12-12T08:53:53.474Z,0.98
2022-12-12T08:56:23.261Z,1.00
2022-12-12T08:58:51.074Z,1.05
2022-12-12T09:01:22.275Z,1.00
2022-12-12T09:03:51.564Z,1.07
2022-12-12T09:06:19.762Z,1.05
2022-12-12T09:08:48.160Z,1.12
2022-12-12T09:11:17.840Z,1.07
2022-12-12T09:13:45.562Z,1.04
2022-12-12T09:16:13.283Z,0.93
2022-12-12T09:18:48.105Z,0.88
2022-12-12T09:21:17.001Z,0.96
2022-12-12T09:23:44.683Z,0.90
2022-12-12T09:26:12.528Z,0.84
2022-12-12T09:28:40.424Z,0.84
2022-12-12T09:31:09.700Z,0.92
2022-12-12T09:33:37.464Z,0.89
2022-12-12T09:36:07.193Z,0.98
2022-12-12T09:38:35.195Z,1.15
2022-12-12T09:41:09.811Z,1.18
2022-12-12T09:44:00.307Z,1.13
2022-12-12T09:46:37.714Z,1.06
2022-12-12T09:49:24.789Z,1.04
2022-12-12T09:51:54.185Z,1.01
2022-12-12T09:54:25.650Z,1.03
2022-12-12T09:56:59.202Z,1.06
2022-12-12T09:59:36.175Z,1.04
2022-12-12T10:02:34.900Z,1.07
2022-12-12T10:05:42.787Z,1.02
2022-12-12T10:08:10.316Z,1.03
2022-12-12T10:10:42.622Z,1.06
2022-12-12T10:13:19.479Z,1.11
2022-12-12T10:15:51.771Z,1.15
2022-12-12T10:18:27.090Z,1.22
2022-12-12T10:20:59.451Z,1.13
2022-12-12T10:23:51.477Z,1.13
2022-12-12T10:26:24.230Z,1.17
2022-12-12T10:28:56.069Z,1.17
2022-12-12T10:31:30.260Z,0.95
2022-12-12T10:34:13.077Z,0.81
2022-12-12T10:37:08.915Z,0.75
2022-12-12T10:39:42.331Z,0.81
2022-12-12T10:42:24.616Z,0.70
2022-12-12T10:45:23.481Z,0.80
2022-12-12T10:47:51.244Z,0.79
2022-12-12T10:50:39.024Z,0.82
2022-12-12T10:53:09.008Z,0.76
2022-12-12T10:55:57.866Z,0.81
2022-12-12T10:58:37.774Z,0.69
2022-12-12T11:01:44.981Z,0.70
2022-12-12T11:04:14.604Z,0.79
2022-12-12T11:06:56.238Z,0.75
2022-12-12T11:09:26.772Z,0.76
2022-12-12T11:12:16.648Z,0.80
2022-12-12T11:14:51.434Z,0.91
2022-12-12T11:17:28.593Z,0.99
2022-12-12T11:19:58.844Z,1.02
2022-12-12T11:22:27.974Z,1.05
2022-12-12T11:24:56.146Z,0.98
2022-12-12T11:27:32.234Z,0.92
2022-12-12T11:30:04.286Z,0.83
2022-12-12T11:32:44.637Z,0.76
2022-12-12T11:35:46.996Z,0.77
2022-12-12T11:38:25.007Z,0.72
2022-12-12T11:41:02.068Z,0.60
2022-12-12T11:43:37.089Z,0.51
2022-12-12T11:46:13.684Z,0.46
2022-12-12T11:48:59.293Z,0.43
2022-12-12T11:51:39.426Z,0.43
2022-12-12T11:54:45.402Z,0.50
2022-12-12T11:57:24.305Z,0.61
2022-12-12T12:00:13.285Z,0.71
2022-12-12T12:03:05.467Z,0.82
2022-12-12T12:05:46.153Z,0.86
2022-12-12T12:08:35.703Z,0.91
2022-12-12T12:11:09.636Z,0.92
2022-12-12T12:13:55.361Z,1.07
2022-12-12T12:16:59.599Z,1.09
2022-12-12T12:19:30.058Z,1.17
2022-12-12T12:22:39.218Z,1.21
2022-12-12T12:25:19.634Z,1.07
2022-12-12T12:28:06.027Z,1.20
2022-12-12T12:30:59.585Z,1.19
2022-12-12T12:34:12.296Z,1.24
2022-12-12T12:36:54.630Z,1.34
2022-12-12T12:39:52.214Z,1.39
2022-12-12T12:42:49.797Z,1.38
2022-12-12T12:45:27.800Z,1.37
2022-12-12T12:48:10.227Z,1.29
2022-12-12T12:50:47.240Z,1.45
2022-12-12T12:53:23.391Z,1.58
2022-12-12T12:55:58.622Z,1.69
2022-12-12T12:58:31.022Z,1.76
2022-12-12T13:01:39.068Z,1.73
2022-12-12T13:04:21.339Z,1.75
2022-12-12T13:07:04.452Z,1.92
2022-12-12T13:09:51.372Z,1.93
2022-12-12T13:12:32.573Z,1.93
2022-12-12T13:15:04.878Z,2.00
2022-12-12T13:17:35.986Z,2.01
2022-12-12T13:20:03.798Z,2.10
2022-12-12T13:22:45.805Z,2.09
2022-12-12T13:26:02.766Z,2.21
2022-12-12T13:29:04.374Z,2.19
2022-12-12T13:31:40.838Z,2.09
2022-12-12T13:34:16.749Z,2.24
2022-12-12T13:36:48.553Z,2.29
2022-12-12T13:39:31.099Z,2.21
2022-12-12T13:42:03.671Z,2.36
2022-12-12T13:44:44.490Z,2.50
2022-12-12T13:47:18.021Z,2.54
2022-12-12T13:49:53.846Z,2.65
2022-12-12T13:52:44.777Z,2.60
2022-12-12T13:55:12.851Z,2.56
2022-12-12T13:58:02.766Z,2.64
2022-12-12T14:00:37.976Z,2.72
2022-12-12T14:03:12.608Z,2.73
2022-12-12T14:05:43.453Z,2.86
2022-12-12T14:08:11.001Z,2.93
2022-12-12T14:11:03.088Z,2.97
2022-12-12T14:13:45.336Z,2.90
2022-12-12T14:16:30.057Z,2.88
2022-12-12T14:19:21.015Z,2.84
2022-12-12T14:21:48.968Z,2.81
2022-12-12T14:24:34.938Z,2.79
2022-12-12T14:27:04.461Z,2.76
2022-12-12T14:29:45.727Z,2.88
2022-12-12T14:32:13.341Z,2.85
2022-12-12T14:34:59.436Z,2.89
2022-12-12T14:37:36.100Z,2.82
2022-12-12T14:40:28.298Z,2.79
2022-12-12T14:43:21.842Z,2.84
2022-12-12T14:45:50.240Z,2.61
2022-12-12T14:48:33.736Z,2.61
2022-12-12T14:51:11.949Z,2.64
2022-12-12T14:53:39.518Z,2.58
2022-12-12T14:56:11.113Z,2.62
2022-12-12T14:58:46.211Z,2.66
2022-12-12T15:01:18.151Z,2.73
2022-12-12T15:03:50.428Z,2.73
2022-12-12T15:06:25.839Z,2.70
2022-12-12T15:08:54.418Z,2.72
2022-12-12T15:11:25.448Z,2.74
2022-12-12T15:13:58.573Z,2.73
2022-12-12T15:16:48.562Z,2.65
2022-12-12T15:19:23.188Z,2.68
2022-12-12T15:21:51.073Z,2.76
2022-12-12T15:24:26.599Z,2.70
2022-12-12T15:26:59.065Z,2.69
2022-12-12T15:29:29.406Z,2.76
2022-12-12T15:32:07.125Z,2.64
2022-12-12T15:34:36.982Z,2.70
2022-12-12T15:37:34.528Z,2.62
2022-12-12T15:40:13.895Z,2.58
2022-12-12T15:42:49.378Z,2.60
2022-12-12T15:45:26.072Z,2.59
2022-12-12T15:47:54.844Z,2.62
2022-12-12T15:50:27.280Z,2.58
2022-12-12T15:53:08.232Z,2.50
2022-12-12T15:55:36.346Z,2.51
2022-12-12T15:58:03.904Z,2.40
2022-12-12T16:00:38.129Z,2.28
2022-12-12T16:03:11.627Z,2.24
2022-12-12T16:05:40.156Z,2.21
2022-12-12T16:08:31.749Z,2.20
2022-12-12T16:11:02.611Z,2.14
2022-12-12T16:13:41.323Z,2.14
2022-12-12T16:16:35.789Z,2.11
2022-12-12T16:19:05.246Z,2.12
2022-12-12T16:21:34.554Z,2.10
2022-12-12T16:24:13.376Z,2.06
2022-12-12T16:26:41.110Z,2.00
2022-12-12T16:29:08.576Z,2.01
2022-12-12T16:31:35.961Z,2.05
2022-12-12T16:34:03.608Z,1.94
2022-12-12T16:36:31.172Z,1.96
2022-12-12T16:38:58.566Z,1.97
2022-12-12T16:41:25.883Z,1.92
2022-12-12T16:43:53.192Z,1.94
2022-12-12T16:46:23.196Z,1.91
2022-12-12T16:48:52.879Z,1.88
2022-12-12T16:51:27.704Z,1.99
2022-12-12T16:53:55.617Z,1.95
2022-12-12T16:56:23.019Z,2.00
2022-12-12T16:58:51.013Z,1.90
2022-12-12T17:01:19.198Z,1.86
2022-12-12T17:03:47.094Z,1.84
2022-12-12T17:06:14.558Z,1.88
2022-12-12T17:08:41.905Z,1.78
2022-12-12T17:11:11.166Z,1.72
2022-12-12T17:13:46.438Z,1.73
2022-12-12T17:16:14.727Z,1.78
2022-12-12T17:18:42.202Z,1.70
2022-12-12T17:21:09.852Z,1.74
2022-12-12T17:23:37.130Z,1.75
2022-12-12T17:26:05.199Z,1.74
2022-12-12T17:28:34.145Z,1.71
2022-12-12T17:31:02.483Z,1.73
2022-12-12T17:33:30.414Z,1.69
2022-12-12T17:36:04.591Z,1.81
2022-12-12T17:38:33.143Z,1.87
2022-12-12T17:41:09.172Z,1.76
2022-12-12T17:43:37.658Z,1.72
2022-12-12T17:46:08.646Z,1.68
2022-12-12T17:48:36.333Z,1.63
2022-12-12T17:51:06.161Z,1.66
2022-12-12T17:53:42.324Z,1.63
2022-12-12T17:56:15.851Z,1.60
2022-12-12T17:58:45.978Z,1.56
2022-12-12T18:01:16.437Z,1.43
2022-12-12T18:03:44.726Z,1.41
2022-12-12T18:06:13.130Z,1.26
2022-12-12T18:08:42.147Z,1.34
2022-12-12T18:11:13.732Z,1.27
2022-12-12T18:13:42.054Z,1.30
2022-12-12T18:16:13.381Z,1.36
2022-12-12T18:18:41.253Z,1.39
2022-12-12T18:21:59.277Z,1.42
2022-12-12T18:24:18.845Z,1.23
2022-12-12T18:26:47.830Z,1.23
2022-12-12T18:29:15.364Z,1.11
2022-12-12T18:31:42.875Z,1.06
2022-12-12T18:34:10.635Z,1.07
2022-12-12T18:36:38.101Z,1.10
2022-12-12T18:39:07.143Z,1.12
2022-12-12T18:41:36.898Z,1.17
2022-12-12T18:44:07.268Z,1.17
2022-12-12T18:46:41.953Z,1.21
2022-12-12T18:49:15.130Z,1.16
2022-12-12T18:51:44.505Z,1.14
2022-12-12T18:54:28.964Z,1.20
2022-12-12T18:57:00.378Z,1.20
2022-12-12T18:59:27.869Z,1.22
2022-12-12T19:01:55.440Z,1.12
2022-12-12T19:04:23.958Z,1.16
2022-12-12T19:06:53.095Z,1.19
2022-12-12T19:09:21.709Z,1.12
2022-12-12T19:11:50.346Z,1.08
2022-12-12T19:14:18.005Z,1.15
2022-12-12T19:16:46.057Z,1.14
2022-12-12T19:19:14.528Z,1.06
2022-12-12T19:21:42.950Z,1.04
2022-12-12T19:24:12.566Z,1.05
2022-12-12T19:26:42.335Z,1.05
2022-12-12T19:29:17.634Z,1.06
2022-12-12T19:31:45.583Z,1.06
2022-12-12T19:34:16.215Z,1.00
2022-12-12T19:36:44.193Z,0.92
2022-12-12T19:39:12.857Z,0.93
2022-12-12T19:41:40.666Z,0.88
2022-12-12T19:44:12.798Z,0.85
2022-12-12T19:46:42.923Z,0.78
2022-12-12T19:49:13.844Z,0.86
2022-12-12T19:51:42.892Z,0.85
2022-12-12T19:54:15.140Z,0.79
2022-12-12T19:56:51.429Z,0.77
2022-12-12T19:59:25.103Z,0.84
2022-12-12T20:01:52.638Z,0.80
2022-12-12T20:04:24.012Z,0.78
2022-12-12T20:06:51.604Z,0.68
2022-12-12T20:09:22.352Z,0.65
2022-12-12T20:11:50.385Z,0.70
2022-12-12T20:14:23.487Z,0.67
2022-12-12T20:16:55.107Z,0.70
2022-12-12T20:19:24.425Z,0.65
2022-12-12T20:22:02.259Z,0.67
2022-12-12T20:24:32.434Z,0.59
2022-12-12T20:27:00.270Z,0.60
2022-12-12T20:29:28.055Z,0.59
2022-12-12T20:31:55.738Z,0.50
2022-12-12T20:34:25.020Z,0.53
2022-12-12T20:36:55.167Z,0.42
2022-12-12T20:39:24.947Z,0.34
2022-12-12T20:41:53.951Z,0.21
2022-12-12T20:44:23.394Z,0.23
2022-12-12T20:46:51.326Z,0.20
2022-12-12T20:49:22.420Z,0.24
2022-12-12T20:51:58.641Z,0.24
2022-12-12T20:54:28.470Z,0.19
2022-12-12T20:56:57.504Z,0.16
2022-12-12T20:59:25.865Z,0.14
2022-12-12T21:01:53.810Z,0.11
2022-12-12T21:04:22.132Z,0.10
2022-12-12T21:06:51.778Z,0.14
2022-12-12T21:09:25.080Z,0.10
2022-12-12T21:11:55.953Z,0.08
2022-12-12T21:14:25.246Z,0.09
2022-12-12T21:16:53.499Z,0.11
2022-12-12T21:19:22.092Z,0.12
2022-12-12T21:21:50.473Z,0.06
2022-12-12T21:24:18.517Z,-0.01
2022-12-12T21:26:46.732Z,0.05
2022-12-12T21:29:14.355Z,0.03
2022-12-12T21:31:49.809Z,0.03
2022-12-12T21:34:18.482Z,0.03
2022-12-12T21:36:45.907Z,0.00
2022-12-12T21:39:13.504Z,-0.06
2022-12-12T21:41:44.012Z,-0.09
2022-12-12T21:44:11.872Z,-0.16
2022-12-12T21:46:42.148Z,-0.16
2022-12-12T21:49:28.431Z,-0.14
2022-12-12T21:51:59.412Z,-0.19
2022-12-12T21:54:29.236Z,-0.23
2022-12-12T21:56:57.860Z,-0.23
2022-12-12T21:59:27.046Z,-0.20
2022-12-12T22:01:59.975Z,-0.18
2022-12-12T22:04:28.201Z,-0.17
2022-12-12T22:06:57.347Z,-0.20
2022-12-12T22:09:25.201Z,-0.19
2022-12-12T22:12:04.078Z,-0.24
2022-12-12T22:14:33.366Z,-0.26
2022-12-12T22:17:03.400Z,-0.19
2022-12-12T22:19:31.327Z,-0.19
2022-12-12T22:21:58.799Z,-0.23
2022-12-12T22:24:26.473Z,-0.28
2022-12-12T22:26:54.010Z,-0.45
2022-12-12T22:29:21.632Z,-0.40
2022-12-12T22:31:52.580Z,-0.41
2022-12-12T22:34:23.700Z,-0.46
2022-12-12T22:36:52.219Z,-0.44
2022-12-12T22:39:27.690Z,-0.52
2022-12-12T22:41:55.903Z,-0.57
2022-12-12T22:44:25.197Z,-0.52
2022-12-12T22:46:54.737Z,-0.65
2022-12-12T22:49:25.875Z,-0.69
2022-12-12T22:51:57.143Z,-0.64
2022-12-12T22:54:25.907Z,-0.69
2022-12-12T22:56:53.482Z,-0.70
2022-12-12T22:59:21.290Z,-0.70
2022-12-12T23:01:48.740Z,-0.74
2022-12-12T23:04:16.155Z,-0.80
2022-12-12T23:06:44.249Z,-0.80
2022-12-12T23:09:17.167Z,-0.77
2022-12-12T23:11:45.462Z,-0.78
2022-12-12T23:14:16.259Z,-0.79
2022-12-12T23:16:44.874Z,-0.79
2022-12-12T23:19:14.828Z,-0.71
2022-12-12T23:21:42.457Z,-0.69
2022-12-12T23:24:10.384Z,-0.76
2022-12-12T23:26:38.553Z,-0.81
2022-12-12T23:29:09.208Z,-0.91
2022-12-12T23:31:38.701Z,-0.91
2022-12-12T23:34:15.951Z,-1.01
2022-12-12T23:36:44.133Z,-0.98
2022-12-12T23:39:12.934Z,-0.98
2022-12-12T23:41:41.130Z,-1.01
2022-12-12T23:44:10.063Z,-0.94
2022-12-12T23:46:37.749Z,-0.95
2022-12-12T23:49:12.724Z,-0.85
2022-12-12T23:51:51.932Z,-0.81
2022-12-12T23:54:28.119Z,-0.87
2022-12-12T23:56:56.218Z,-0.94
2022-12-12T23:59:25.727Z,-1.04
